createdAt,value
2023-01-15T00:01:15.579Z,445.45
2023-01-15T00:06:22.709Z,449.64
2023-01-15T00:11:29.920Z,449.68
2023-01-15T00:16:37.159Z,449.18
2023-01-15T00:21:44.316Z,451.20
2023-01-15T00:26:51.516Z,451.61
2023-01-15T00:31:58.756Z,453.63
2023-01-15T00:37:06.012Z,453.48
2023-01-15T00:42:13.952Z,452.83
2023-01-15T00:47:21.169Z,455.66
2023-01-15T00:52:28.388Z,456.41
2023-01-15T00:57:35.618Z,456.55
2023-01-15T01:02:42.834Z,457.66
2023-01-15T01:07:49.980Z,456.92
2023-01-15T01:12:57.123Z,456.63
2023-01-15T01:18:04.342Z,456.44
2023-01-15T01:23:11.554Z,455.93
2023-01-15T01:28:18.805Z,456.29
2023-01-15T01:33:26.042Z,456.82
2023-01-15T01:38:33.228Z,456.80
2023-01-15T01:43:40.435Z,457.99
2023-01-15T01:48:47.688Z,456.05
2023-01-15T01:53:54.914Z,456.23
2023-01-15T01:59:02.136Z,458.00
2023-01-15T02:04:09.327Z,457.47
2023-01-15T02:09:16.541Z,458.44
2023-01-15T02:14:23.746Z,457.33
2023-01-15T02:19:30.941Z,459.32
2023-01-15T02:24:38.154Z,460.60
2023-01-15T02:29:45.362Z,459.88
2023-01-15T02:34:52.571Z,459.90
2023-01-15T02:39:59.784Z,459.39
2023-01-15T02:45:07.033Z,460.88
2023-01-15T02:50:14.178Z,460.75
2023-01-15T02:55:21.344Z,461.75
2023-01-15T03:00:28.497Z,462.90
2023-01-15T03:05:35.692Z,464.92
2023-01-15T03:10:42.886Z,464.83
2023-01-15T03:15:50.088Z,466.69
2023-01-15T03:20:58.877Z,468.27
2023-01-15T03:26:04.543Z,468.78
2023-01-15T03:31:11.815Z,468.08
2023-01-15T03:36:19.001Z,468.83
2023-01-15T03:41:26.248Z,470.05
2023-01-15T03:46:33.479Z,469.80
2023-01-15T03:51:40.645Z,469.69
2023-01-15T03:56:47.858Z,470.00
2023-01-15T04:01:55.151Z,470.11
2023-01-15T04:07:02.286Z,470.89
2023-01-15T04:12:09.534Z,470.74
2023-01-15T04:17:16.904Z,469.90
2023-01-15T04:22:24.054Z,468.98
2023-01-15T04:27:31.261Z,468.43
2023-01-15T04:32:38.422Z,467.54
2023-01-15T04:37:45.574Z,467.65
2023-01-15T04:42:52.766Z,466.54
2023-01-15T04:47:59.994Z,467.98
2023-01-15T04:53:07.176Z,468.38
2023-01-15T04:58:14.375Z,467.08
2023-01-15T05:03:21.609Z,467.49
2023-01-15T05:08:28.811Z,466.01
2023-01-15T05:13:35.999Z,465.34
2023-01-15T05:18:43.240Z,466.48
2023-01-15T05:23:50.430Z,466.73
2023-01-15T05:28:57.561Z,465.87
2023-01-15T05:34:04.724Z,466.44
2023-01-15T05:39:11.929Z,467.24
2023-01-15T05:44:19.133Z,466.51
2023-01-15T05:49:26.354Z,466.51
2023-01-15T05:54:33.614Z,466.73
2023-01-15T05:59:40.885Z,465.48
2023-01-15T06:04:48.071Z,465.73
2023-01-15T06:09:55.254Z,466.47
2023-01-15T06:15:02.496Z,466.36
2023-01-15T06:20:09.675Z,465.43
2023-01-15T06:25:16.822Z,466.25
2023-01-15T06:30:23.978Z,466.22
2023-01-15T06:35:31.170Z,466.55
2023-01-15T06:40:38.376Z,465.77
2023-01-15T06:45:45.597Z,466.84
2023-01-15T06:50:52.781Z,468.36
2023-01-15T06:55:59.990Z,467.69
2023-01-15T07:01:07.313Z,468.18
2023-01-15T07:06:14.370Z,469.38
2023-01-15T07:11:21.637Z,467.34
2023-01-15T07:16:28.913Z,468.08
2023-01-15T07:21:36.003Z,468.91
2023-01-15T07:26:43.222Z,469.39
2023-01-15T07:31:50.453Z,470.23
2023-01-15T07:36:57.679Z,471.61
2023-01-15T07:42:04.894Z,473.31
2023-01-15T07:47:12.073Z,473.33
2023-01-15T07:52:19.277Z,474.30
2023-01-15T07:57:26.464Z,474.14
2023-01-15T08:02:33.658Z,473.98
2023-01-15T08:07:40.890Z,473.85
2023-01-15T08:12:48.073Z,473.52
2023-01-15T08:17:55.282Z,475.04
2023-01-15T08:23:02.421Z,474.68
2023-01-15T08:28:09.572Z,474.93
2023-01-15T08:33:16.757Z,473.32
2023-01-15T08:38:23.993Z,474.23
2023-01-15T08:43:31.192Z,475.72
2023-01-15T08:48:38.422Z,475.17
2023-01-15T08:53:45.607Z,474.78
2023-01-15T08:58:52.796Z,475.58
2023-01-15T09:04:00.016Z,475.78
2023-01-15T09:09:07.165Z,474.57
2023-01-15T09:14:59.253Z,474.47
2023-01-15T09:19:21.626Z,473.85
2023-01-15T09:24:28.871Z,472.30
2023-01-15T09:29:35.998Z,472.17
2023-01-15T09:34:43.235Z,472.18
2023-01-15T09:39:50.433Z,470.70
2023-01-15T09:44:57.706Z,470.56
2023-01-15T09:50:04.953Z,468.17
2023-01-15T09:55:12.137Z,461.61
2023-01-15T10:00:19.387Z,458.99
2023-01-15T10:05:26.608Z,457.33
2023-01-15T10:10:33.801Z,455.47
2023-01-15T10:15:41.054Z,453.14
2023-01-15T10:20:48.204Z,451.98
2023-01-15T10:25:55.368Z,450.36
2023-01-15T10:31:02.621Z,448.82
2023-01-15T10:36:09.795Z,446.74
2023-01-15T10:41:17.046Z,444.57
2023-01-15T10:46:24.343Z,444.23
2023-01-15T10:51:31.531Z,442.86
2023-01-15T10:56:38.748Z,441.98
2023-01-15T11:01:46.097Z,439.54
2023-01-15T11:06:53.175Z,439.22
2023-01-15T11:12:00.376Z,439.21
2023-01-15T11:17:07.586Z,437.36
2023-01-15T11:22:14.858Z,436.15
2023-01-15T11:27:22.048Z,432.93
2023-01-15T11:32:29.251Z,428.73
2023-01-15T11:37:36.423Z,426.97
2023-01-15T11:42:43.667Z,424.95
2023-01-15T11:47:51.097Z,423.19
2023-01-15T11:52:58.290Z,423.03
2023-01-15T11:58:05.480Z,422.06
2023-01-15T12:03:12.678Z,421.78
2023-01-15T12:08:19.904Z,420.93
2023-01-15T12:13:27.141Z,420.57
2023-01-15T12:18:34.299Z,418.26
2023-01-15T12:23:41.498Z,417.83
2023-01-15T12:28:48.706Z,417.02
2023-01-15T12:33:55.925Z,415.02
2023-01-15T12:39:03.162Z,414.64
2023-01-15T12:44:10.429Z,412.41
2023-01-15T12:49:17.652Z,412.06
2023-01-15T12:54:24.837Z,412.89
2023-01-15T12:59:32.076Z,411.13
2023-01-15T13:04:39.368Z,410.89
2023-01-15T13:09:46.570Z,410.64
2023-01-15T13:14:53.809Z,410.75
2023-01-15T13:20:01.066Z,408.32
2023-01-15T13:25:08.369Z,409.59
2023-01-15T13:30:15.972Z,405.48
2023-01-15T13:35:23.192Z,407.43
2023-01-15T13:40:30.440Z,407.58
2023-01-15T13:45:37.816Z,407.21
2023-01-15T13:50:44.922Z,406.68
2023-01-15T13:55:52.150Z,405.80
2023-01-15T14:00:59.444Z,405.31
2023-01-15T14:06:06.519Z,405.47
2023-01-15T14:11:13.703Z,405.92
2023-01-15T14:16:21.001Z,404.90
2023-01-15T14:21:28.214Z,406.06
2023-01-15T14:26:35.374Z,406.29
2023-01-15T14:31:42.864Z,405.58
2023-01-15T14:36:50.054Z,405.21
2023-01-15T14:41:57.208Z,402.71
2023-01-15T14:47:04.415Z,403.84
2023-01-15T14:52:11.691Z,401.39
2023-01-15T14:57:18.877Z,402.83
2023-01-15T15:02:26.380Z,400.47
2023-01-15T15:07:33.589Z,401.24
2023-01-15T15:12:41.303Z,405.79
2023-01-15T15:17:48.675Z,408.09
2023-01-15T15:22:55.841Z,409.30
2023-01-15T15:28:03.054Z,407.33
2023-01-15T15:33:10.240Z,405.68
2023-01-15T15:38:17.525Z,406.84
2023-01-15T15:43:24.861Z,407.17
2023-01-15T15:48:32.041Z,407.09
2023-01-15T15:53:39.248Z,407.97
2023-01-15T15:58:46.760Z,407.89
2023-01-15T16:03:54.278Z,408.01
2023-01-15T16:09:01.621Z,407.87
2023-01-15T16:14:08.799Z,408.43
2023-01-15T16:19:16.193Z,408.19
2023-01-15T16:24:24.320Z,407.24
2023-01-15T16:29:31.738Z,408.02
2023-01-15T16:34:39.342Z,408.50
2023-01-15T16:39:46.981Z,408.86
2023-01-15T16:44:54.329Z,409.73
2023-01-15T16:50:01.884Z,409.54
2023-01-15T16:55:09.401Z,410.36
2023-01-15T17:00:17.108Z,410.60
2023-01-15T17:05:24.948Z,409.97
2023-01-15T17:10:32.440Z,409.90
2023-01-15T17:15:40.099Z,409.67
2023-01-15T17:20:47.673Z,409.74
2023-01-15T17:25:55.297Z,410.43
2023-01-15T17:31:02.713Z,409.74
2023-01-15T17:36:11.076Z,410.59
2023-01-15T17:41:18.839Z,411.42
2023-01-15T17:46:26.786Z,410.68
2023-01-15T17:51:34.381Z,410.77
2023-01-15T17:56:42.096Z,411.05
2023-01-15T18:01:49.795Z,411.10
2023-01-15T18:06:57.058Z,411.66
2023-01-15T18:12:04.534Z,413.12
2023-01-15T18:17:12.165Z,413.77
2023-01-15T18:22:20.265Z,413.64
2023-01-15T18:27:27.683Z,414.37
2023-01-15T18:32:35.299Z,414.87
2023-01-15T18:37:42.733Z,415.68
2023-01-15T18:42:50.220Z,414.92
2023-01-15T18:47:57.591Z,415.48
2023-01-15T18:53:05.153Z,415.52
2023-01-15T18:58:12.876Z,415.80
2023-01-15T19:03:20.476Z,415.69
2023-01-15T19:08:28.088Z,416.48
2023-01-15T19:13:35.705Z,418.39
2023-01-15T19:18:43.414Z,418.84
2023-01-15T19:23:51.139Z,419.58
2023-01-15T19:28:58.506Z,421.06
2023-01-15T19:34:31.732Z,422.09
2023-01-15T19:39:12.857Z,422.22
2023-01-15T19:44:20.370Z,421.57
2023-01-15T19:49:27.976Z,422.45
2023-01-15T19:54:35.619Z,422.89
2023-01-15T19:59:43.305Z,424.31
2023-01-15T20:04:50.935Z,424.96
2023-01-15T20:09:58.550Z,425.78
2023-01-15T20:15:06.254Z,425.39
2023-01-15T20:20:13.666Z,426.00
2023-01-15T20:25:20.895Z,426.31
2023-01-15T20:30:28.385Z,427.37
2023-01-15T20:35:35.735Z,427.13
2023-01-15T20:40:43.200Z,427.73
2023-01-15T20:45:50.885Z,428.01
2023-01-15T20:50:58.447Z,428.17
2023-01-15T20:56:06.041Z,428.50
2023-01-15T21:01:13.503Z,429.03
2023-01-15T21:06:20.609Z,430.15
2023-01-15T21:11:27.866Z,431.05
2023-01-15T21:16:35.451Z,430.98
2023-01-15T21:21:42.997Z,430.98
2023-01-15T21:26:51.530Z,431.34
2023-01-15T21:31:58.891Z,432.45
2023-01-15T21:37:06.087Z,433.28
2023-01-15T21:42:14.038Z,433.80
2023-01-15T21:47:21.267Z,434.61
2023-01-15T21:52:28.446Z,435.18
2023-01-15T21:57:35.599Z,436.62
2023-01-15T22:02:42.797Z,437.30
2023-01-15T22:07:49.993Z,438.75
2023-01-15T22:12:57.201Z,439.95
2023-01-15T22:18:04.438Z,440.17
2023-01-15T22:23:11.710Z,441.59
2023-01-15T22:28:18.925Z,442.69
2023-01-15T22:33:26.097Z,443.11
2023-01-15T22:38:33.297Z,442.96
2023-01-15T22:43:40.607Z,444.07
2023-01-15T22:48:47.914Z,444.76
2023-01-15T22:53:55.232Z,445.89
2023-01-15T22:59:02.445Z,446.88
2023-01-15T23:04:09.684Z,448.39
2023-01-15T23:09:16.859Z,448.33
2023-01-15T23:14:24.061Z,448.70
2023-01-15T23:19:31.291Z,449.78
2023-01-15T23:24:38.472Z,451.26
2023-01-15T23:29:45.678Z,450.73
2023-01-15T23:34:52.898Z,451.19
2023-01-15T23:40:00.173Z,452.62
2023-01-15T23:45:07.329Z,453.67
2023-01-15T23:50:14.563Z,454.63
2023-01-15T23:55:21.724Z,454.65
